sensor_id;sensor_type;location;lat;lon;timestamp;pressure;altitude;pressure_sealevel;temperature;humidity
55538;BME280;41383;51.418;7.286;2023-03-18T00:01:26;99117.66;;;11.65;76.59
55538;BME280;41383;51.418;7.286;2023-03-18T00:03:51;99115.22;;;11.64;76.47
55538;BME280;41383;51.418;7.286;2023-03-18T00:06:18;99125.38;;;11.58;76.74
55538;BME280;41383;51.418;7.286;2023-03-18T00:08:45;99126.13;;;11.64;76.27
55538;BME280;41383;51.418;7.286;2023-03-18T00:11:13;99125.81;;;11.71;76.54
55538;BME280;41383;51.418;7.286;2023-03-18T00:13:40;99124.03;;;11.55;76.64
55538;BME280;41383;51.418;7.286;2023-03-18T00:16:07;99120.78;;;11.53;77.03
55538;BME280;41383;51.418;7.286;2023-03-18T00:18:34;99117.94;;;11.64;76.66
55538;BME280;41383;51.418;7.286;2023-03-18T00:21:00;99121.50;;;11.64;76.67
55538;BME280;41383;51.418;7.286;2023-03-18T00:23:26;99120.75;;;11.59;76.65
55538;BME280;41383;51.418;7.286;2023-03-18T00:25:54;99116.38;;;11.58;76.89
55538;BME280;41383;51.418;7.286;2023-03-18T00:28:21;99127.88;;;11.54;76.91
55538;BME280;41383;51.418;7.286;2023-03-18T00:30:47;99135.53;;;11.52;76.60
55538;BME280;41383;51.418;7.286;2023-03-18T00:33:14;99144.34;;;11.44;77.26
55538;BME280;41383;51.418;7.286;2023-03-18T00:35:40;99145.16;;;11.44;77.81
55538;BME280;41383;51.418;7.286;2023-03-18T00:38:06;99135.91;;;11.40;78.29
55538;BME280;41383;51.418;7.286;2023-03-18T00:40:34;99146.47;;;11.47;78.05
55538;BME280;41383;51.418;7.286;2023-03-18T00:43:21;99143.75;;;11.47;77.70
55538;BME280;41383;51.418;7.286;2023-03-18T00:45:48;99142.06;;;11.51;77.73
55538;BME280;41383;51.418;7.286;2023-03-18T00:48:15;99146.41;;;11.58;77.46
55538;BME280;41383;51.418;7.286;2023-03-18T00:50:40;99145.59;;;11.57;77.40
55538;BME280;41383;51.418;7.286;2023-03-18T00:53:07;99134.91;;;11.61;77.11
55538;BME280;41383;51.418;7.286;2023-03-18T00:55:32;99137.66;;;11.61;77.30
55538;BME280;41383;51.418;7.286;2023-03-18T00:57:57;99135.44;;;11.63;77.36
55538;BME280;41383;51.418;7.286;2023-03-18T01:00:23;99142.75;;;11.67;76.78
55538;BME280;41383;51.418;7.286;2023-03-18T01:02:50;99132.66;;;11.68;76.59
55538;BME280;41383;51.418;7.286;2023-03-18T01:05:15;99120.91;;;11.67;77.12
55538;BME280;41383;51.418;7.286;2023-03-18T01:07:42;99114.66;;;11.67;77.01
55538;BME280;41383;51.418;7.286;2023-03-18T01:10:08;99120.16;;;11.62;76.88
55538;BME280;41383;51.418;7.286;2023-03-18T01:12:35;99118.47;;;11.66;76.98
55538;BME280;41383;51.418;7.286;2023-03-18T01:15:00;99120.91;;;11.67;76.74
55538;BME280;41383;51.418;7.286;2023-03-18T01:17:25;99122.31;;;11.65;76.85
55538;BME280;41383;51.418;7.286;2023-03-18T01:19:51;99122.31;;;11.65;76.74
55538;BME280;41383;51.418;7.286;2023-03-18T01:22:17;99126.13;;;11.64;76.77
55538;BME280;41383;51.418;7.286;2023-03-18T01:24:43;99135.75;;;11.61;76.92
55538;BME280;41383;51.418;7.286;2023-03-18T01:27:09;99141.47;;;11.60;77.65
55538;BME280;41383;51.418;7.286;2023-03-18T01:29:35;99145.31;;;11.59;77.35
55538;BME280;41383;51.418;7.286;2023-03-18T01:32:00;99139.03;;;11.58;77.72
55538;BME280;41383;51.418;7.286;2023-03-18T01:34:27;99134.38;;;11.59;77.74
55538;BME280;41383;51.418;7.286;2023-03-18T01:36:53;99140.41;;;11.55;78.19
55538;BME280;41383;51.418;7.286;2023-03-18T01:39:20;99145.31;;;11.59;78.15
55538;BME280;41383;51.418;7.286;2023-03-18T01:41:46;99138.47;;;11.61;78.00
55538;BME280;41383;51.418;7.286;2023-03-18T01:44:17;99133.81;;;11.62;78.23
55538;BME280;41383;51.418;7.286;2023-03-18T01:46:47;99140.91;;;11.63;78.57
55538;BME280;41383;51.418;7.286;2023-03-18T01:49:19;99138.47;;;11.61;78.81
55538;BME280;41383;51.418;7.286;2023-03-18T01:51:52;99135.38;;;11.68;77.99
55538;BME280;41383;51.418;7.286;2023-03-18T01:54:20;99132.66;;;11.68;78.57
55538;BME280;41383;51.418;7.286;2023-03-18T01:56:47;99133.78;;;11.67;78.59
55538;BME280;41383;51.418;7.286;2023-03-18T01:59:14;99131.03;;;11.67;78.68
55538;BME280;41383;51.418;7.286;2023-03-18T02:01:51;99133.25;;;11.65;78.93
55538;BME280;41383;51.418;7.286;2023-03-18T02:04:20;99134.84;;;11.66;78.93
55538;BME280;41383;51.418;7.286;2023-03-18T02:06:47;99147.28;;;11.53;80.13
55538;BME280;41383;51.418;7.286;2023-03-18T02:09:12;99145.31;;;11.59;79.88
55538;BME280;41383;51.418;7.286;2023-03-18T02:11:40;99146.91;;;11.65;80.02
55538;BME280;41383;51.418;7.286;2023-03-18T02:14:09;99145.25;;;11.64;80.10
55538;BME280;41383;51.418;7.286;2023-03-18T02:16:46;99149.09;;;11.63;80.38
55538;BME280;41383;51.418;7.286;2023-03-18T02:19:29;99135.75;;;11.61;80.44
55538;BME280;41383;51.418;7.286;2023-03-18T02:22:14;99140.91;;;11.63;80.72
55538;BME280;41383;51.418;7.286;2023-03-18T02:27:50;99131.06;;;11.62;81.25
55538;BME280;41383;51.418;7.286;2023-03-18T02:30:22;99142.00;;;11.62;81.18
55538;BME280;41383;51.418;7.286;2023-03-18T02:32:50;99131.59;;;11.64;81.40
55538;BME280;41383;51.418;7.286;2023-03-18T02:35:16;99127.28;;;11.58;81.78
55538;BME280;41383;51.418;7.286;2023-03-18T02:37:42;99124.22;;;11.64;81.51
55538;BME280;41383;51.418;7.286;2023-03-18T02:40:29;99126.63;;;11.71;80.89
55538;BME280;41383;51.418;7.286;2023-03-18T02:42:54;99117.31;;;11.72;80.90
55538;BME280;41383;51.418;7.286;2023-03-18T02:48:11;99122.31;;;11.65;81.24
55538;BME280;41383;51.418;7.286;2023-03-18T02:50:38;99123.13;;;11.65;81.35
55538;BME280;41383;51.418;7.286;2023-03-18T02:53:04;99133.28;;;11.60;81.96
55538;BME280;41383;51.418;7.286;2023-03-18T02:55:29;99133.03;;;11.56;82.02
55538;BME280;41383;51.418;7.286;2023-03-18T02:57:55;99126.81;;;11.50;82.26
55538;BME280;41383;51.418;7.286;2023-03-18T03:00:20;99136.34;;;11.53;82.25
55538;BME280;41383;51.418;7.286;2023-03-18T03:02:45;99131.75;;;11.48;82.50
55538;BME280;41383;51.418;7.286;2023-03-18T03:05:11;99132.84;;;11.47;82.91
55538;BME280;41383;51.418;7.286;2023-03-18T03:07:36;99135.84;;;11.46;82.84
55538;BME280;41383;51.418;7.286;2023-03-18T03:10:03;99140.69;;;11.54;82.39
55538;BME280;41383;51.418;7.286;2023-03-18T03:12:29;99145.41;;;11.48;82.48
55538;BME280;41383;51.418;7.286;2023-03-18T03:14:54;99135.63;;;11.42;82.55
55538;BME280;41383;51.418;7.286;2023-03-18T03:17:20;99140.84;;;11.38;82.87
55538;BME280;41383;51.418;7.286;2023-03-18T03:19:45;99150.41;;;11.36;83.37
55538;BME280;41383;51.418;7.286;2023-03-18T03:22:11;99153.44;;;11.34;83.45
55538;BME280;41383;51.418;7.286;2023-03-18T03:24:36;99147.97;;;11.34;83.59
55538;BME280;41383;51.418;7.286;2023-03-18T03:27:02;99154.28;;;11.29;83.36
55538;BME280;41383;51.418;7.286;2023-03-18T03:29:28;99152.16;;;11.21;84.12
55538;BME280;41383;51.418;7.286;2023-03-18T03:31:53;99147.19;;;11.28;83.81
55538;BME280;41383;51.418;7.286;2023-03-18T03:34:18;99150.22;;;11.27;83.97
55538;BME280;41383;51.418;7.286;2023-03-18T03:36:43;99163.03;;;11.26;84.47
55538;BME280;41383;51.418;7.286;2023-03-18T03:39:09;99165.78;;;11.26;84.29
55538;BME280;41383;51.418;7.286;2023-03-18T03:41:34;99167.97;;;11.19;84.52
55538;BME280;41383;51.418;7.286;2023-03-18T03:44:00;99171.22;;;11.26;84.13
55538;BME280;41383;51.418;7.286;2023-03-18T03:46:25;99163.31;;;11.25;84.38
55538;BME280;41383;51.418;7.286;2023-03-18T03:48:50;99163.88;;;11.21;84.74
55538;BME280;41383;51.418;7.286;2023-03-18T03:51:15;99171.75;;;11.28;84.05
55538;BME280;41383;51.418;7.286;2023-03-18T03:53:41;99164.38;;;11.29;84.27
55538;BME280;41383;51.418;7.286;2023-03-18T03:56:07;99166.91;;;11.15;84.70
55538;BME280;41383;51.418;7.286;2023-03-18T03:58:33;99174.84;;;11.11;85.33
55538;BME280;41383;51.418;7.286;2023-03-18T04:00:59;99176.03;;;11.00;85.78
55538;BME280;41383;51.418;7.286;2023-03-18T04:03:24;99173.00;;;11.06;85.67
55538;BME280;41383;51.418;7.286;2023-03-18T04:05:50;99180.31;;;11.11;85.21
55538;BME280;41383;51.418;7.286;2023-03-18T04:08:15;99178.72;;;11.05;85.38
55538;BME280;41383;51.418;7.286;2023-03-18T04:10:41;99182.50;;;11.09;85.37
55538;BME280;41383;51.418;7.286;2023-03-18T04:13:07;99179.00;;;11.03;85.35
55538;BME280;41383;51.418;7.286;2023-03-18T04:15:33;99180.66;;;10.99;85.85
55538;BME280;41383;51.418;7.286;2023-03-18T04:17:58;99181.72;;;11.03;85.46
55538;BME280;41383;51.418;7.286;2023-03-18T04:20:28;99177.94;;;10.99;85.59
55538;BME280;41383;51.418;7.286;2023-03-18T04:22:54;99178.22;;;10.97;86.22
55538;BME280;41383;51.418;7.286;2023-03-18T04:25:19;99191.03;;;10.97;86.13
55538;BME280;41383;51.418;7.286;2023-03-18T04:27:45;99201.66;;;11.04;85.70
55538;BME280;41383;51.418;7.286;2023-03-18T04:30:11;99201.41;;;11.00;85.64
55538;BME280;41383;51.418;7.286;2023-03-18T04:32:37;99198.69;;;11.00;85.91
55538;BME280;41383;51.418;7.286;2023-03-18T04:35:02;99197.63;;;10.91;86.08
55538;BME280;41383;51.418;7.286;2023-03-18T04:37:27;99212.03;;;10.96;85.97
55538;BME280;41383;51.418;7.286;2023-03-18T04:39:53;99219.72;;;10.89;86.34
55538;BME280;41383;51.418;7.286;2023-03-18T04:42:18;99211.53;;;10.89;86.17
55538;BME280;41383;51.418;7.286;2023-03-18T04:44:43;99208.78;;;10.94;86.28
55538;BME280;41383;51.418;7.286;2023-03-18T04:47:09;99210.66;;;10.99;85.99
55538;BME280;41383;51.418;7.286;2023-03-18T04:49:35;99209.31;;;10.96;86.25
55538;BME280;41383;51.418;7.286;2023-03-18T04:52:01;99220.50;;;10.95;86.50
55538;BME280;41383;51.418;7.286;2023-03-18T04:54:28;99213.97;;;10.96;85.85
55538;BME280;41383;51.418;7.286;2023-03-18T04:56:53;99222.41;;;11.00;86.02
55538;BME280;41383;51.418;7.286;2023-03-18T04:59:18;99220.22;;;11.02;86.30
55538;BME280;41383;51.418;7.286;2023-03-18T05:01:44;99225.41;;;10.98;86.40
55538;BME280;41383;51.418;7.286;2023-03-18T05:04:09;99224.31;;;10.99;86.66
55538;BME280;41383;51.418;7.286;2023-03-18T05:06:35;99218.31;;;11.02;86.29
55538;BME280;41383;51.418;7.286;2023-03-18T05:09:02;99223.22;;;11.00;86.79
55538;BME280;41383;51.418;7.286;2023-03-18T05:11:29;99219.38;;;11.01;86.77
55538;BME280;41383;51.418;7.286;2023-03-18T05:13:54;99215.56;;;11.02;86.90
55538;BME280;41383;51.418;7.286;2023-03-18T05:16:20;99221.28;;;11.06;86.68
55538;BME280;41383;51.418;7.286;2023-03-18T05:18:45;99216.06;;;11.09;86.64
55538;BME280;41383;51.418;7.286;2023-03-18T05:21:10;99216.66;;;11.06;86.27
55538;BME280;41383;51.418;7.286;2023-03-18T05:23:36;99223.69;;;11.13;86.35
55538;BME280;41383;51.418;7.286;2023-03-18T05:26:02;99226.41;;;11.13;86.33
55538;BME280;41383;51.418;7.286;2023-03-18T05:28:27;99215.47;;;11.18;86.20
55538;BME280;41383;51.418;7.286;2023-03-18T05:30:53;99214.41;;;11.14;86.13
55538;BME280;41383;51.418;7.286;2023-03-18T05:33:18;99228.59;;;11.16;86.15
55538;BME280;41383;51.418;7.286;2023-03-18T05:35:44;99227.75;;;11.20;86.01
55538;BME280;41383;51.418;7.286;2023-03-18T05:38:10;99238.13;;;11.13;85.86
55538;BME280;41383;51.418;7.286;2023-03-18T05:40:35;99236.22;;;11.14;86.25
55538;BME280;41383;51.418;7.286;2023-03-18T05:43:01;99245.72;;;11.21;85.50
55538;BME280;41383;51.418;7.286;2023-03-18T05:45:26;99235.41;;;11.18;85.65
55538;BME280;41383;51.418;7.286;2023-03-18T05:47:52;99243.84;;;11.17;85.96
55538;BME280;41383;51.418;7.286;2023-03-18T05:50:29;99243.00;;;11.21;85.50
55538;BME280;41383;51.418;7.286;2023-03-18T05:52:55;99243.00;;;11.27;85.38
55538;BME280;41383;51.418;7.286;2023-03-18T05:55:21;99245.50;;;11.18;85.61
55538;BME280;41383;51.418;7.286;2023-03-18T05:57:47;99244.13;;;11.20;85.26
55538;BME280;41383;51.418;7.286;2023-03-18T06:00:13;99247.88;;;11.30;85.24
55538;BME280;41383;51.418;7.286;2023-03-18T06:02:39;99249.78;;;11.29;85.10
55538;BME280;41383;51.418;7.286;2023-03-18T06:05:05;99254.69;;;11.27;85.09
55538;BME280;41383;51.418;7.286;2023-03-18T06:07:30;99253.91;;;11.27;85.22
55538;BME280;41383;51.418;7.286;2023-03-18T06:09:55;99256.59;;;11.32;85.08
55538;BME280;41383;51.418;7.286;2023-03-18T06:12:21;99265.31;;;11.34;84.86
55538;BME280;41383;51.418;7.286;2023-03-18T06:14:51;99268.03;;;11.34;84.87
55538;BME280;41383;51.418;7.286;2023-03-18T06:17:16;99260.69;;;11.35;84.87
55538;BME280;41383;51.418;7.286;2023-03-18T06:19:42;99266.09;;;11.45;84.28
55538;BME280;41383;51.418;7.286;2023-03-18T06:22:09;99276.47;;;11.43;84.32
55538;BME280;41383;51.418;7.286;2023-03-18T06:24:34;99271.53;;;11.45;84.37
55538;BME280;41383;51.418;7.286;2023-03-18T06:26:59;99268.72;;;11.55;83.69
55538;BME280;41383;51.418;7.286;2023-03-18T06:29:25;99278.03;;;11.49;83.82
55538;BME280;41383;51.418;7.286;2023-03-18T06:31:50;99273.44;;;11.44;84.07
55538;BME280;41383;51.418;7.286;2023-03-18T06:34:16;99275.59;;;11.48;83.76
55538;BME280;41383;51.418;7.286;2023-03-18T06:36:41;99284.00;;;11.56;83.22
55538;BME280;41383;51.418;7.286;2023-03-18T06:39:07;99288.34;;;11.58;83.24
55538;BME280;41383;51.418;7.286;2023-03-18T06:41:32;99287.28;;;11.59;82.90
55538;BME280;41383;51.418;7.286;2023-03-18T06:43:57;99290.31;;;11.52;83.43
55538;BME280;41383;51.418;7.286;2023-03-18T06:46:23;99287.34;;;11.48;83.44
55538;BME280;41383;51.418;7.286;2023-03-18T06:48:48;99292.75;;;11.53;83.12
55538;BME280;41383;51.418;7.286;2023-03-18T06:51:14;99293.56;;;11.59;83.38
55538;BME280;41383;51.418;7.286;2023-03-18T06:53:39;99296.25;;;11.64;83.03
55538;BME280;41383;51.418;7.286;2023-03-18T06:56:06;99301.69;;;11.64;82.35
55538;BME280;41383;51.418;7.286;2023-03-18T06:58:32;99298.19;;;11.59;82.99
55538;BME280;41383;51.418;7.286;2023-03-18T07:00:57;99292.91;;;11.73;82.25
55538;BME280;41383;51.418;7.286;2023-03-18T07:03:22;99301.94;;;11.73;82.07
55538;BME280;41383;51.418;7.286;2023-03-18T07:05:48;99309.47;;;11.87;81.77
55538;BME280;41383;51.418;7.286;2023-03-18T07:08:13;99299.91;;;11.84;81.92
55538;BME280;41383;51.418;7.286;2023-03-18T07:10:39;99311.91;;;11.88;81.39
55538;BME280;41383;51.418;7.286;2023-03-18T07:13:05;99312.97;;;11.93;81.05
55538;BME280;41383;51.418;7.286;2023-03-18T07:15:30;99317.13;;;11.85;81.28
55538;BME280;41383;51.418;7.286;2023-03-18T07:17:56;99311.53;;;12.00;80.93
55538;BME280;41383;51.418;7.286;2023-03-18T07:20:21;99313.13;;;12.07;80.91
55538;BME280;41383;51.418;7.286;2023-03-18T07:22:47;99311.34;;;12.26;80.18
55538;BME280;41383;51.418;7.286;2023-03-18T07:25:13;99314.88;;;12.32;79.33
55538;BME280;41383;51.418;7.286;2023-03-18T07:27:39;99313.00;;;12.28;79.40
55538;BME280;41383;51.418;7.286;2023-03-18T07:30:06;99319.66;;;12.16;80.32
55538;BME280;41383;51.418;7.286;2023-03-18T07:32:37;99321.56;;;12.16;80.14
55538;BME280;41383;51.418;7.286;2023-03-18T07:35:03;99316.59;;;12.23;80.23
55538;BME280;41383;51.418;7.286;2023-03-18T07:37:29;99326.59;;;12.33;79.56
55538;BME280;41383;51.418;7.286;2023-03-18T07:39:55;99332.56;;;12.40;79.62
55538;BME280;41383;51.418;7.286;2023-03-18T07:42:21;99324.78;;;12.23;79.98
55538;BME280;41383;51.418;7.286;2023-03-18T07:44:46;99329.88;;;12.35;79.71
55538;BME280;41383;51.418;7.286;2023-03-18T07:47:11;99324.53;;;12.49;79.30
55538;BME280;41383;51.418;7.286;2023-03-18T07:49:38;99332.13;;;12.57;79.18
55538;BME280;41383;51.418;7.286;2023-03-18T07:52:04;99333.78;;;12.53;78.47
55538;BME280;41383;51.418;7.286;2023-03-18T07:54:29;99334.19;;;12.41;79.23
55538;BME280;41383;51.418;7.286;2023-03-18T07:56:54;99342.44;;;12.36;78.90
55538;BME280;41383;51.418;7.286;2023-03-18T07:59:20;99336.34;;;12.44;78.78
55538;BME280;41383;51.418;7.286;2023-03-18T08:01:46;99343.50;;;12.40;78.35
55538;BME280;41383;51.418;7.286;2023-03-18T08:04:11;99341.59;;;12.65;77.73
55538;BME280;41383;51.418;7.286;2023-03-18T08:06:37;99341.75;;;12.79;77.14
55538;BME280;41383;51.418;7.286;2023-03-18T08:09:03;99348.25;;;12.83;76.24
55538;BME280;41383;51.418;7.286;2023-03-18T08:11:29;99348.50;;;12.87;76.11
55538;BME280;41383;51.418;7.286;2023-03-18T08:13:54;99351.28;;;12.82;76.55
55538;BME280;41383;51.418;7.286;2023-03-18T08:16:20;99353.16;;;12.87;76.14
55538;BME280;41383;51.418;7.286;2023-03-18T08:18:45;99352.22;;;12.72;75.96
55538;BME280;41383;51.418;7.286;2023-03-18T08:21:11;99361.47;;;12.76;76.61
55538;BME280;41383;51.418;7.286;2023-03-18T08:23:36;99360.78;;;12.90;76.13
55538;BME280;41383;51.418;7.286;2023-03-18T08:26:03;99362.97;;;12.88;76.44
55538;BME280;41383;51.418;7.286;2023-03-18T08:28:28;99358.81;;;12.95;76.01
55538;BME280;41383;51.418;7.286;2023-03-18T08:30:54;99370.53;;;13.01;76.49
55538;BME280;41383;51.418;7.286;2023-03-18T08:33:21;99372.78;;;13.18;75.65
55538;BME280;41383;51.418;7.286;2023-03-18T08:35:47;99377.31;;;13.28;74.97
55538;BME280;41383;51.418;7.286;2023-03-18T08:38:12;99383.06;;;13.27;74.64
55538;BME280;41383;51.418;7.286;2023-03-18T08:40:39;99384.66;;;13.33;74.42
55538;BME280;41383;51.418;7.286;2023-03-18T08:43:05;99384.09;;;13.36;74.46
55538;BME280;41383;51.418;7.286;2023-03-18T08:45:31;99383.59;;;13.29;75.06
55538;BME280;41383;51.418;7.286;2023-03-18T08:47:57;99385.56;;;13.48;73.76
55538;BME280;41383;51.418;7.286;2023-03-18T08:50:23;99386.56;;;13.33;74.28
55538;BME280;41383;51.418;7.286;2023-03-18T08:52:53;99390.44;;;13.51;73.85
55538;BME280;41383;51.418;7.286;2023-03-18T08:55:18;99392.72;;;13.68;73.45
55538;BME280;41383;51.418;7.286;2023-03-18T08:57:45;99387.78;;;13.70;72.79
55538;BME280;41383;51.418;7.286;2023-03-18T09:00:12;99391.34;;;13.71;72.85
55538;BME280;41383;51.418;7.286;2023-03-18T09:02:37;99399.09;;;13.63;72.99
55538;BME280;41383;51.418;7.286;2023-03-18T09:05:03;99384.88;;;13.61;73.08
55538;BME280;41383;51.418;7.286;2023-03-18T09:07:29;99392.44;;;13.45;73.76
55538;BME280;41383;51.418;7.286;2023-03-18T09:09:54;99399.31;;;13.42;73.52
55538;BME280;41383;51.418;7.286;2023-03-18T09:12:20;99402.81;;;13.48;73.51
55538;BME280;41383;51.418;7.286;2023-03-18T09:14:46;99403.25;;;13.36;73.60
55538;BME280;41383;51.418;7.286;2023-03-18T09:17:11;99403.09;;;13.47;73.41
55538;BME280;41383;51.418;7.286;2023-03-18T09:19:37;99403.63;;;13.49;72.82
55538;BME280;41383;51.418;7.286;2023-03-18T09:22:03;99402.72;;;13.34;73.01
55538;BME280;41383;51.418;7.286;2023-03-18T09:24:28;99404.34;;;13.35;73.21
55538;BME280;41383;51.418;7.286;2023-03-18T09:26:53;99408.72;;;13.36;72.82
55538;BME280;41383;51.418;7.286;2023-03-18T09:29:19;99407.19;;;13.49;73.16
55538;BME280;41383;51.418;7.286;2023-03-18T09:31:44;99409.34;;;13.52;72.43
55538;BME280;41383;51.418;7.286;2023-03-18T09:34:09;99407.91;;;13.60;72.49
55538;BME280;41383;51.418;7.286;2023-03-18T09:36:37;99410.63;;;13.60;72.33
55538;BME280;41383;51.418;7.286;2023-03-18T09:39:03;99419.00;;;13.69;72.09
55538;BME280;41383;51.418;7.286;2023-03-18T09:41:42;99408.44;;;13.62;71.68
55538;BME280;41383;51.418;7.286;2023-03-18T09:44:26;99410.69;;;13.55;71.97
55538;BME280;41383;51.418;7.286;2023-03-18T09:47:15;99411.69;;;13.64;71.53
55538;BME280;41383;51.418;7.286;2023-03-18T09:56:13;99406.50;;;13.82;71.06
55538;BME280;41383;51.418;7.286;2023-03-18T09:58:53;99407.56;;;13.86;71.43
55538;BME280;41383;51.418;7.286;2023-03-18T10:01:22;99409.63;;;13.95;71.17
55538;BME280;41383;51.418;7.286;2023-03-18T10:04:09;99413.91;;;14.20;70.69
55538;BME280;41383;51.418;7.286;2023-03-18T10:06:39;99412.69;;;14.46;69.96
55538;BME280;41383;51.418;7.286;2023-03-18T10:09:39;99404.06;;;14.53;68.82
55538;BME280;41383;51.418;7.286;2023-03-18T10:12:14;99399.22;;;14.64;68.80
55538;BME280;41383;51.418;7.286;2023-03-18T10:14:48;99404.00;;;14.58;69.09
55538;BME280;41383;51.418;7.286;2023-03-18T10:17:21;99398.53;;;14.72;68.69
55538;BME280;41383;51.418;7.286;2023-03-18T10:19:50;99402.19;;;14.67;68.08
55538;BME280;41383;51.418;7.286;2023-03-18T10:22:29;99410.06;;;14.55;68.27
55538;BME280;41383;51.418;7.286;2023-03-18T10:25:18;99406.31;;;14.65;68.37
55538;BME280;41383;51.418;7.286;2023-03-18T10:31:06;99404.50;;;14.60;68.73
55538;BME280;41383;51.418;7.286;2023-03-18T10:33:43;99402.38;;;14.71;67.70
55538;BME280;41383;51.418;7.286;2023-03-18T10:36:31;99400.81;;;14.84;67.56
55538;BME280;41383;51.418;7.286;2023-03-18T10:39:01;99398.91;;;14.85;66.42
55538;BME280;41383;51.418;7.286;2023-03-18T10:41:33;99406.66;;;14.77;66.12
55538;BME280;41383;51.418;7.286;2023-03-18T10:44:14;99404.28;;;14.90;65.91
55538;BME280;41383;51.418;7.286;2023-03-18T10:46:42;99402.38;;;15.19;66.00
55538;BME280;41383;51.418;7.286;2023-03-18T10:49:17;99405.94;;;15.19;65.25
55538;BME280;41383;51.418;7.286;2023-03-18T10:52:16;99402.06;;;15.20;64.79
55538;BME280;41383;51.418;7.286;2023-03-18T10:54:44;99393.13;;;15.28;65.03
55538;BME280;41383;51.418;7.286;2023-03-18T10:57:20;99400.66;;;15.37;65.56
55538;BME280;41383;51.418;7.286;2023-03-18T10:59:49;99399.00;;;15.36;65.46
55538;BME280;41383;51.418;7.286;2023-03-18T11:02:29;99397.97;;;15.32;65.29
55538;BME280;41383;51.418;7.286;2023-03-18T11:05:22;99394.63;;;15.35;65.24
55538;BME280;41383;51.418;7.286;2023-03-18T11:07:59;99395.31;;;15.55;64.79
55538;BME280;41383;51.418;7.286;2023-03-18T11:10:27;99385.34;;;15.59;64.70
55538;BME280;41383;51.418;7.286;2023-03-18T11:12:57;99384.25;;;15.60;64.56
55538;BME280;41383;51.418;7.286;2023-03-18T11:15:35;99389.22;;;15.72;63.90
55538;BME280;41383;51.418;7.286;2023-03-18T11:18:02;99382.53;;;15.87;63.75
55538;BME280;41383;51.418;7.286;2023-03-18T11:20:38;99387.78;;;15.97;63.41
55538;BME280;41383;51.418;7.286;2023-03-18T11:23:37;99379.16;;;16.04;61.42
55538;BME280;41383;51.418;7.286;2023-03-18T11:26:23;99379.34;;;16.08;61.41
55538;BME280;41383;51.418;7.286;2023-03-18T11:28:57;99371.59;;;16.10;60.29
55538;BME280;41383;51.418;7.286;2023-03-18T11:31:22;99376.22;;;16.24;60.71
55538;BME280;41383;51.418;7.286;2023-03-18T11:33:47;99374.53;;;16.37;60.00
55538;BME280;41383;51.418;7.286;2023-03-18T11:36:17;99371.03;;;16.45;59.29
55538;BME280;41383;51.418;7.286;2023-03-18T11:38:57;99377.22;;;16.51;58.62
55538;BME280;41383;51.418;7.286;2023-03-18T11:41:25;99380.78;;;16.51;58.08
55538;BME280;41383;51.418;7.286;2023-03-18T11:44:00;99381.97;;;16.59;58.50
55538;BME280;41383;51.418;7.286;2023-03-18T11:46:29;99375.19;;;16.65;58.31
55538;BME280;41383;51.418;7.286;2023-03-18T11:48:56;99363.09;;;16.75;57.38
55538;BME280;41383;51.418;7.286;2023-03-18T11:56:48;99358.53;;;17.11;57.83
55538;BME280;41383;51.418;7.286;2023-03-18T11:59:27;99359.81;;;17.05;54.65
55538;BME280;41383;51.418;7.286;2023-03-18T12:04:54;99366.03;;;17.20;54.38
55538;BME280;41383;51.418;7.286;2023-03-18T12:07:42;99365.31;;;17.05;54.50
55538;BME280;41383;51.418;7.286;2023-03-18T12:10:23;99363.13;;;16.84;55.39
55538;BME280;41383;51.418;7.286;2023-03-18T12:33:07;99369.50;;;17.34;53.80
55538;BME280;41383;51.418;7.286;2023-03-18T12:38:41;99358.72;;;17.15;54.94
55538;BME280;41383;51.418;7.286;2023-03-18T12:41:25;99372.06;;;16.90;53.96
55538;BME280;41383;51.418;7.286;2023-03-18T12:49:27;99369.03;;;16.37;55.61
55538;BME280;41383;51.418;7.286;2023-03-18T12:52:03;99362.63;;;16.50;55.42
55538;BME280;41383;51.418;7.286;2023-03-18T12:54:35;99358.47;;;16.94;54.91
55538;BME280;41383;51.418;7.286;2023-03-18T12:57:09;99351.94;;;17.21;54.36
55538;BME280;41383;51.418;7.286;2023-03-18T12:59:44;99347.44;;;17.25;54.38
55538;BME280;41383;51.418;7.286;2023-03-18T13:04:38;99338.38;;;17.34;53.98
55538;BME280;41383;51.418;7.286;2023-03-18T13:07:19;99339.06;;;17.57;53.39
55538;BME280;41383;51.418;7.286;2023-03-18T13:09:53;99346.53;;;17.57;52.57
55538;BME280;41383;51.418;7.286;2023-03-18T13:12:38;99341.13;;;17.34;53.73
55538;BME280;41383;51.418;7.286;2023-03-18T13:18:08;99338.88;;;16.95;55.16
55538;BME280;41383;51.418;7.286;2023-03-18T13:20:37;99341.19;;;17.11;54.59
55538;BME280;41383;51.418;7.286;2023-03-18T13:28:59;99332.03;;;17.33;53.96
55538;BME280;41383;51.418;7.286;2023-03-18T13:31:38;99329.44;;;17.28;54.35
55538;BME280;41383;51.418;7.286;2023-03-18T13:37:33;99328.50;;;17.59;53.31
55538;BME280;41383;51.418;7.286;2023-03-18T13:43:01;99316.19;;;18.19;52.34
55538;BME280;41383;51.418;7.286;2023-03-18T13:45:35;99318.66;;;17.94;51.80
55538;BME280;41383;51.418;7.286;2023-03-18T13:48:06;99321.03;;;18.04;52.50
55538;BME280;41383;51.418;7.286;2023-03-18T13:50:35;99320.41;;;17.99;52.39
55538;BME280;41383;51.418;7.286;2023-03-18T13:53:03;99325.28;;;17.75;52.76
55538;BME280;41383;51.418;7.286;2023-03-18T13:55:46;99316.53;;;17.55;52.61
55538;BME280;41383;51.418;7.286;2023-03-18T13:58:34;99322.50;;;17.31;53.19
55538;BME280;41383;51.418;7.286;2023-03-18T14:01:31;99326.66;;;17.19;53.56
55538;BME280;41383;51.418;7.286;2023-03-18T14:04:18;99316.78;;;17.27;53.54
55538;BME280;41383;51.418;7.286;2023-03-18T14:06:50;99319.41;;;17.32;54.17
55538;BME280;41383;51.418;7.286;2023-03-18T14:11:53;99303.69;;;17.59;52.45
55538;BME280;41383;51.418;7.286;2023-03-18T14:20:37;99293.84;;;16.91;53.47
55538;BME280;41383;51.418;7.286;2023-03-18T14:26:02;99289.44;;;16.81;54.47
55538;BME280;41383;51.418;7.286;2023-03-18T14:28:29;99294.13;;;16.72;54.43
55538;BME280;41383;51.418;7.286;2023-03-18T14:31:18;99287.53;;;16.50;54.71